Time;durP1;ratioP1;P1;durP2;ratioP2;P2;SDS_P1;SDS_P2;PMS_P1;PMS_P2;Temp;Humidity;BMP_temperature;BMP_pressure;BME280_temperature;BME280_humidity;BME280_pressure;Samples;Min_cycle;Max_cycle;Signal;HPM_P1;HPM_P2
2022/03/22 00:02:18;;;;;;;45.08;30.75;;;7.80;99.90;;;;;;5055723;28;20410;-61
2022/03/22 00:04:44;;;;;;;46.38;31.73;;;7.70;99.90;;;;;;5055266;28;20052;-61
2022/03/22 00:07:10;;;;;;;44.20;29.95;;;7.70;99.90;;;;;;5072856;28;20044;-61
2022/03/22 00:09:36;;;;;;;48.67;31.88;;;7.70;99.90;;;;;;5073351;28;20055;-61
2022/03/22 00:12:02;;;;;;;47.83;31.85;;;7.70;99.90;;;;;;5072929;28;20044;-61
2022/03/22 00:14:28;;;;;;;45.50;30.10;;;7.60;99.90;;;;;;5073144;28;20043;-61
2022/03/22 00:16:53;;;;;;;47.63;32.28;;;7.60;99.90;;;;;;5072760;28;20480;-61
2022/03/22 00:19:22;;;;;;;45.22;31.40;;;7.70;99.90;;;;;;5072874;28;20536;-61
2022/03/22 00:21:48;;;;;;;47.83;32.45;;;7.70;99.90;;;;;;5072735;28;20032;-61
2022/03/22 00:24:13;;;;;;;48.00;31.70;;;7.70;99.90;;;;;;5073008;28;20039;-61
2022/03/22 00:26:39;;;;;;;47.25;31.45;;;7.60;99.90;;;;;;5072628;28;20043;-62
2022/03/22 00:29:05;;;;;;;46.45;31.52;;;7.70;99.90;;;;;;5072805;28;20402;-61
2022/03/22 00:31:31;;;;;;;48.45;33.17;;;7.60;99.90;;;;;;5053993;28;20471;-61
2022/03/22 00:33:57;;;;;;;48.30;33.03;;;7.60;99.90;;;;;;5071789;28;20082;-61
2022/03/22 00:36:23;;;;;;;45.85;30.95;;;7.70;99.90;;;;;;5071409;28;20036;-61
2022/03/22 00:38:49;;;;;;;45.70;31.10;;;7.60;99.90;;;;;;5071982;28;20029;-61
2022/03/22 00:41:16;;;;;;;49.75;31.23;;;7.60;99.90;;;;;;5071810;28;20095;-61
2022/03/22 00:43:43;;;;;;;45.33;31.48;;;7.60;99.90;;;;;;5071846;28;20040;-61
2022/03/22 00:46:09;;;;;;;51.35;34.67;;;7.60;99.90;;;;;;5071433;28;20041;-61
2022/03/22 00:48:35;;;;;;;45.88;31.75;;;7.60;99.90;;;;;;5071639;28;20044;-61
2022/03/22 00:51:01;;;;;;;50.65;32.78;;;7.60;99.90;;;;;;5071423;28;20517;-61
2022/03/22 00:53:27;;;;;;;51.08;32.67;;;7.50;99.90;;;;;;5071642;28;20037;-61
2022/03/22 00:55:52;;;;;;;46.45;30.80;;;7.50;99.90;;;;;;5071378;28;20043;-61
2022/03/22 00:58:19;;;;;;;46.85;31.15;;;7.50;99.90;;;;;;5071514;28;20037;-61
2022/03/22 01:00:45;;;;;;;44.03;30.40;;;7.50;99.90;;;;;;5071330;28;20060;-61
2022/03/22 01:03:11;;;;;;;48.03;30.00;;;7.50;99.90;;;;;;5071388;28;20101;-61
2022/03/22 01:05:37;;;;;;;48.28;30.33;;;7.50;99.90;;;;;;5070967;28;20048;-61
2022/03/22 01:08:06;;;;;;;49.38;32.88;;;7.40;99.90;;;;;;5071324;28;20066;-61
2022/03/22 01:10:34;;;;;;;51.78;32.22;;;7.40;99.90;;;;;;5071334;28;20037;-61
2022/03/22 01:13:00;;;;;;;45.30;30.40;;;7.40;99.90;;;;;;5071089;28;20052;-61
2022/03/22 01:15:32;;;;;;;46.80;29.48;;;7.40;99.90;;;;;;5070943;28;20063;-61
2022/03/22 01:18:01;;;;;;;44.25;29.23;;;7.40;99.90;;;;;;5071032;28;20036;-61
2022/03/22 01:20:27;;;;;;;42.92;29.95;;;7.40;99.90;;;;;;5071253;28;20029;-61
2022/03/22 01:22:54;;;;;;;44.95;30.00;;;7.30;99.90;;;;;;5071025;28;20036;-61
2022/03/22 01:25:23;;;;;;;43.40;28.98;;;7.30;99.90;;;;;;5070951;28;20079;-61
2022/03/22 01:27:50;;;;;;;45.75;31.77;;;7.20;99.90;;;;;;5071139;28;20044;-61
2022/03/22 01:30:19;;;;;;;47.95;32.10;;;7.20;99.90;;;;;;5035536;28;1012966;-61
2022/03/22 01:32:46;;;;;;;49.35;32.22;;;7.20;99.90;;;;;;5071485;28;20041;-61
2022/03/22 01:35:11;;;;;;;50.88;33.78;;;7.20;99.90;;;;;;5071692;28;20604;-61
2022/03/22 01:37:38;;;;;;;49.00;33.30;;;7.20;99.90;;;;;;5071533;28;20048;-61
2022/03/22 01:40:06;;;;;;;52.08;33.58;;;7.20;99.90;;;;;;5071705;28;20032;-61
2022/03/22 01:42:32;;;;;;;55.50;35.10;;;7.20;99.90;;;;;;5071711;28;20040;-61
2022/03/22 01:44:57;;;;;;;50.05;33.65;;;7.30;99.90;;;;;;5071598;28;20133;-61
2022/03/22 01:47:23;;;;;;;52.67;33.45;;;7.20;99.90;;;;;;5071208;28;20417;-61
2022/03/22 01:49:52;;;;;;;47.30;32.65;;;7.20;99.90;;;;;;5071754;28;20565;-61
2022/03/22 01:52:23;;;;;;;54.00;33.92;;;7.10;99.90;;;;;;5071664;28;20036;-62
2022/03/22 01:54:50;;;;;;;53.45;34.55;;;7.20;99.90;;;;;;5071696;28;20033;-61
2022/03/22 01:57:20;;;;;;;50.80;34.03;;;7.10;99.90;;;;;;5071334;28;20093;-61
2022/03/22 01:59:47;;;;;;;53.97;35.70;;;7.10;99.90;;;;;;5071456;28;20041;-61
2022/03/22 02:07:47;;;;;;;54.63;34.53;;;7.20;99.90;;;;;;5071470;28;20049;-61
2022/03/22 02:10:13;;;;;;;54.55;35.00;;;7.20;99.90;;;;;;5071364;28;20429;-61
2022/03/22 02:12:40;;;;;;;55.58;34.95;;;7.20;99.90;;;;;;5071475;28;20045;-61
2022/03/22 02:15:07;;;;;;;50.35;33.30;;;7.20;99.90;;;;;;5071461;28;20036;-61
2022/03/22 02:17:34;;;;;;;47.67;31.63;;;7.20;99.90;;;;;;5071169;28;20098;-61
2022/03/22 02:20:01;;;;;;;46.25;31.83;;;7.20;99.90;;;;;;5073502;28;20091;-61
2022/03/22 02:22:34;;;;;;;46.47;32.85;;;7.10;99.90;;;;;;5075277;28;20080;-61
2022/03/22 02:25:01;;;;;;;47.15;31.48;;;7.10;99.90;;;;;;5075135;28;20052;-61
2022/03/22 02:27:29;;;;;;;41.63;29.13;;;7.10;99.90;;;;;;5074909;28;20046;-61
2022/03/22 02:29:55;;;;;;;42.90;29.38;;;7.00;99.90;;;;;;5074911;28;20040;-61
2022/03/22 02:32:24;;;;;;;44.47;30.52;;;7.00;99.90;;;;;;5074943;28;20517;-61
2022/03/22 02:34:50;;;;;;;46.53;31.85;;;7.00;99.90;;;;;;5074988;28;20079;-61
2022/03/22 02:37:15;;;;;;;48.90;33.22;;;6.90;99.90;;;;;;5074571;28;20064;-61
2022/03/22 02:39:41;;;;;;;48.42;32.72;;;6.90;99.90;;;;;;5074970;28;20059;-61
2022/03/22 02:42:07;;;;;;;49.83;31.85;;;6.90;99.90;;;;;;5074975;28;20040;-61
2022/03/22 02:44:33;;;;;;;48.35;31.73;;;6.80;99.90;;;;;;5074885;28;20246;-61
2022/03/22 02:46:58;;;;;;;47.53;32.72;;;6.90;99.90;;;;;;5074552;28;20047;-61
2022/03/22 02:49:24;;;;;;;47.90;33.53;;;6.90;99.90;;;;;;5074832;28;20513;-61
2022/03/22 02:51:49;;;;;;;46.03;33.13;;;6.90;99.90;;;;;;5074443;28;20040;-61
2022/03/22 02:54:16;;;;;;;55.65;36.22;;;6.90;99.90;;;;;;5074830;28;20051;-61
2022/03/22 02:56:41;;;;;;;52.60;34.05;;;6.90;99.90;;;;;;5074426;28;20032;-61
2022/03/22 02:59:07;;;;;;;53.40;35.53;;;6.90;99.90;;;;;;5074612;28;20036;-61
2022/03/22 03:01:33;;;;;;;54.85;36.53;;;6.90;99.90;;;;;;5074533;28;20064;-61
2022/03/22 03:04:01;;;;;;;55.05;34.50;;;6.90;99.90;;;;;;5074511;28;20490;-61
2022/03/22 03:06:30;;;;;;;52.75;35.92;;;6.90;99.90;;;;;;5074029;28;20425;-61
2022/03/22 03:08:57;;;;;;;51.33;35.33;;;6.90;99.90;;;;;;5074503;28;20066;-61
2022/03/22 03:11:23;;;;;;;54.92;35.45;;;6.90;99.90;;;;;;5074267;28;20041;-61
2022/03/22 03:16:33;;;;;;;52.30;34.17;;;6.90;99.90;;;;;;5074009;28;20044;-61
2022/03/22 03:18:59;;;;;;;53.00;34.67;;;6.80;99.90;;;;;;5074134;28;20036;-61
2022/03/22 03:21:25;;;;;;;55.28;33.85;;;6.80;99.90;;;;;;5074265;28;20589;-61
2022/03/22 03:23:50;;;;;;;50.70;34.10;;;6.90;99.90;;;;;;5074229;28;20144;-61
2022/03/22 03:26:16;;;;;;;53.03;34.45;;;6.80;99.90;;;;;;5073828;28;20032;-61
2022/03/22 03:28:41;;;;;;;52.50;34.30;;;6.80;99.90;;;;;;5073920;28;20051;-61
2022/03/22 03:31:07;;;;;;;54.38;36.00;;;6.90;99.90;;;;;;5072257;28;20048;-61
2022/03/22 03:33:32;;;;;;;52.58;34.50;;;6.90;99.90;;;;;;5073540;28;20059;-61
2022/03/22 03:35:58;;;;;;;59.38;36.15;;;6.90;99.90;;;;;;5073641;28;20070;-61
2022/03/22 03:38:24;;;;;;;53.75;35.72;;;6.90;99.90;;;;;;5074001;28;20047;-61
2022/03/22 03:43:33;;;;;;;50.67;35.00;;;6.90;99.90;;;;;;5073699;28;20139;-61
2022/03/22 03:48:43;;;;;;;53.42;35.35;;;6.90;99.90;;;;;;5073729;28;20052;-61
2022/03/22 03:51:09;;;;;;;55.40;36.25;;;7.00;99.90;;;;;;5073499;28;20045;-61
2022/03/22 03:53:34;;;;;;;55.10;34.58;;;7.00;99.90;;;;;;5055612;28;20131;-61
2022/03/22 03:56:00;;;;;;;57.63;34.67;;;7.00;99.90;;;;;;5073216;28;20387;-61
2022/03/22 03:58:25;;;;;;;55.20;33.45;;;7.00;99.90;;;;;;5073231;28;20087;-61
2022/03/22 04:00:51;;;;;;;51.38;34.28;;;6.90;99.90;;;;;;5055636;28;20048;-61
2022/03/22 04:03:16;;;;;;;49.08;32.85;;;6.90;99.90;;;;;;5073520;28;20040;-60
2022/03/22 04:05:42;;;;;;;49.30;31.48;;;6.90;99.90;;;;;;5073105;28;20037;-61
2022/03/22 04:08:07;;;;;;;50.13;33.22;;;6.80;99.90;;;;;;5073384;28;20047;-61
2022/03/22 04:10:34;;;;;;;52.28;33.95;;;6.80;99.90;;;;;;5073200;28;20052;-61
2022/03/22 04:13:00;;;;;;;50.60;33.30;;;6.70;99.90;;;;;;5055127;28;20090;-61
2022/03/22 04:15:25;;;;;;;50.08;34.03;;;6.60;99.90;;;;;;5073022;28;20036;-61
2022/03/22 04:17:52;;;;;;;49.55;33.83;;;6.60;99.90;;;;;;5072987;28;20042;-61
2022/03/22 04:20:18;;;;;;;51.35;33.65;;;6.60;99.90;;;;;;5072986;28;20067;-61
2022/03/22 04:22:43;;;;;;;51.55;34.50;;;6.60;99.90;;;;;;5055060;28;20080;-61
2022/03/22 04:25:09;;;;;;;54.95;36.20;;;6.60;99.90;;;;;;5072883;28;20029;-61
2022/03/22 04:33:14;;;;;;;54.97;36.53;;;6.50;99.90;;;;;;5017866;28;20054;-61
2022/03/22 04:35:39;;;;;;;55.35;36.35;;;6.50;99.90;;;;;;5072521;28;20077;-61
2022/03/22 04:38:05;;;;;;;57.13;35.50;;;6.50;99.90;;;;;;5072540;28;20032;-61
2022/03/22 04:40:31;;;;;;;56.63;36.97;;;6.50;99.90;;;;;;5072813;28;20037;-61
2022/03/22 04:42:57;;;;;;;54.58;35.17;;;6.50;99.90;;;;;;5072349;28;20040;-61
2022/03/22 04:45:24;;;;;;;50.75;34.03;;;6.50;99.90;;;;;;5072198;28;20391;-61
2022/03/22 04:47:50;;;;;;;55.03;33.80;;;6.50;99.90;;;;;;5072564;28;20044;-61
2022/03/22 04:50:18;;;;;;;54.95;35.30;;;6.50;99.90;;;;;;5072411;28;20090;-61
2022/03/22 04:58:13;;;;;;;54.05;33.70;;;6.50;99.90;;;;;;5072482;28;20037;-61
2022/03/22 05:00:39;;;;;;;55.35;34.10;;;6.50;99.90;;;;;;5072246;28;20536;-61
2022/03/22 05:03:08;;;;;;;55.88;34.35;;;6.50;99.90;;;;;;5072120;28;20040;-61
2022/03/22 05:08:18;;;;;;;48.10;32.60;;;6.60;99.90;;;;;;5054221;28;20127;-61
2022/03/22 05:10:44;;;;;;;51.88;34.58;;;6.60;99.90;;;;;;5072026;28;20068;-61
2022/03/22 05:13:09;;;;;;;51.53;33.50;;;6.50;99.90;;;;;;5054104;28;20036;-61
2022/03/22 05:15:35;;;;;;;54.03;35.05;;;6.50;99.90;;;;;;5071616;28;20192;-61
2022/03/22 05:18:01;;;;;;;53.83;33.97;;;6.50;99.90;;;;;;5072172;28;20036;-61
2022/03/22 05:20:28;;;;;;;50.38;33.50;;;6.50;99.90;;;;;;5072008;28;20049;-61
2022/03/22 05:22:53;;;;;;;51.42;33.80;;;6.50;99.90;;;;;;5071986;28;20075;-61
2022/03/22 05:25:19;;;;;;;52.00;34.45;;;6.50;99.90;;;;;;5071769;28;20536;-61
2022/03/22 05:27:45;;;;;;;57.45;36.35;;;6.50;99.90;;;;;;5071733;28;20047;-61
2022/03/22 05:30:11;;;;;;;52.58;33.20;;;6.50;99.90;;;;;;5071543;28;20048;-64
2022/03/22 05:32:37;;;;;;;48.63;33.20;;;6.50;99.90;;;;;;5093894;22;20049;-63
2022/03/22 05:35:03;;;;;;;54.10;34.25;;;6.50;99.90;;;;;;5071858;28;20383;-65
2022/03/22 05:37:28;;;;;;;56.63;35.20;;;6.50;99.90;;;;;;5071628;28;20043;-65
2022/03/22 05:39:54;;;;;;;49.10;33.50;;;6.50;99.90;;;;;;5070276;28;20115;-65
2022/03/22 05:42:19;;;;;;;57.13;33.35;;;6.50;99.90;;;;;;5070380;28;20079;-65
2022/03/22 05:44:45;;;;;;;52.85;34.75;;;6.50;99.90;;;;;;5072070;28;20597;-65
2022/03/22 05:47:11;;;;;;;48.05;33.45;;;6.50;99.90;;;;;;5071265;28;20056;-65
2022/03/22 05:49:38;;;;;;;55.38;34.30;;;6.40;99.90;;;;;;5071841;28;20494;-65
2022/03/22 05:52:04;;;;;;;56.60;35.47;;;6.50;99.90;;;;;;5071511;28;20051;-65
2022/03/22 05:54:30;;;;;;;59.67;35.22;;;6.40;99.90;;;;;;5073199;28;20048;-65
2022/03/22 05:56:55;;;;;;;48.90;33.70;;;6.40;99.90;;;;;;5075524;28;20033;-65
2022/03/22 05:59:21;;;;;;;52.38;34.40;;;6.40;99.90;;;;;;5075712;28;20170;-65
2022/03/22 06:01:46;;;;;;;53.38;35.28;;;6.50;99.90;;;;;;5075467;28;20044;-65
2022/03/22 06:04:13;;;;;;;52.50;35.00;;;6.40;99.90;;;;;;5075849;28;20040;-65
2022/03/22 06:06:39;;;;;;;48.08;32.28;;;6.40;99.90;;;;;;5075414;28;20036;-65
2022/03/22 06:09:05;;;;;;;48.30;31.92;;;6.40;99.90;;;;;;5075489;28;20494;-65
2022/03/22 06:11:35;;;;;;;51.03;34.92;;;6.40;99.90;;;;;;5075408;28;20123;-65
2022/03/22 06:14:02;;;;;;;51.47;33.45;;;6.40;99.90;;;;;;5075315;28;20044;-65
2022/03/22 06:16:28;;;;;;;50.58;34.38;;;6.40;99.90;;;;;;5075294;28;20076;-65
2022/03/22 06:18:54;;;;;;;50.40;33.15;;;6.40;99.90;;;;;;5075492;28;20083;-65
2022/03/22 06:21:19;;;;;;;52.47;32.88;;;6.50;99.90;;;;;;5075210;28;20071;-65
2022/03/22 06:23:47;;;;;;;47.42;32.45;;;6.50;99.90;;;;;;5075367;28;20044;-65
2022/03/22 06:26:13;;;;;;;55.72;32.22;;;6.50;99.90;;;;;;5074973;28;20036;-65
2022/03/22 06:28:38;;;;;;;50.65;34.00;;;6.50;99.90;;;;;;5075185;28;20051;-65
2022/03/22 06:31:04;;;;;;;51.03;33.47;;;6.60;99.90;;;;;;5075083;28;20048;-65
2022/03/22 06:33:29;;;;;;;50.00;31.00;;;6.70;99.90;;;;;;5074973;28;20040;-65
2022/03/22 06:35:55;;;;;;;51.53;32.20;;;6.70;99.90;;;;;;5074859;28;20040;-65
2022/03/22 06:38:20;;;;;;;62.42;34.97;;;6.80;99.90;;;;;;5074921;28;20616;-65
2022/03/22 06:40:49;;;;;;;46.70;31.92;;;6.80;99.90;;;;;;5074814;28;20077;-65
2022/03/22 06:43:15;;;;;;;50.40;33.55;;;7.00;99.90;;;;;;5074853;28;20051;-65
2022/03/22 06:45:41;;;;;;;51.10;32.42;;;7.00;99.90;;;;;;5074242;28;20052;-65
2022/03/22 06:48:07;;;;;;;51.60;32.97;;;7.10;99.90;;;;;;5074987;28;20048;-65
2022/03/22 06:50:34;;;;;;;50.25;32.55;;;7.20;99.90;;;;;;5074817;28;20041;-65
2022/03/22 06:52:59;;;;;;;53.15;33.90;;;7.30;99.90;;;;;;5074689;28;20095;-65
2022/03/22 06:55:25;;;;;;;51.20;33.40;;;7.40;99.90;;;;;;5073011;28;20076;-65
2022/03/22 06:57:51;;;;;;;50.08;31.55;;;7.40;99.90;;;;;;5074601;28;20075;-65
2022/03/22 07:00:19;;;;;;;51.50;32.20;;;7.50;99.90;;;;;;5074631;28;20086;-65
2022/03/22 07:02:47;;;;;;;50.83;32.03;;;7.60;99.90;;;;;;5074730;28;20044;-65
2022/03/22 07:05:14;;;;;;;48.35;31.67;;;7.70;99.90;;;;;;5074271;28;20051;-65
2022/03/22 07:07:40;;;;;;;49.25;34.63;;;7.70;99.90;;;;;;5074291;28;20075;-65
2022/03/22 07:10:08;;;;;;;49.08;33.95;;;7.80;99.90;;;;;;5074369;28;20036;-65
2022/03/22 07:12:34;;;;;;;57.67;33.10;;;7.90;99.90;;;;;;5074103;28;20029;-65
2022/03/22 07:15:03;;;;;;;51.35;32.70;;;8.10;99.90;;;;;;5072976;28;20046;-66
2022/03/22 07:17:29;;;;;;;51.42;32.80;;;8.10;99.90;;;;;;5074188;28;20093;-65
2022/03/22 07:19:54;;;;;;;48.67;32.72;;;8.30;99.90;;;;;;5074274;28;20036;-66
2022/03/22 07:22:20;;;;;;;49.40;32.13;;;8.40;99.90;;;;;;5073986;28;20559;-65
2022/03/22 07:24:46;;;;;;;47.80;31.42;;;8.60;99.90;;;;;;5074131;28;20044;-66
2022/03/22 07:27:11;;;;;;;47.92;33.83;;;8.70;99.90;;;;;;5073050;28;20036;-65
2022/03/22 07:29:38;;;;;;;50.28;34.63;;;8.90;99.90;;;;;;5073906;28;20036;-66
2022/03/22 07:32:04;;;;;;;56.60;33.22;;;9.10;99.90;;;;;;5073670;28;20040;-65
2022/03/22 07:34:30;;;;;;;53.38;34.17;;;9.30;99.90;;;;;;5073749;28;20518;-65
2022/03/22 07:36:55;;;;;;;51.25;32.00;;;9.50;99.90;;;;;;5073422;28;20122;-65
2022/03/22 07:39:23;;;;;;;52.85;33.70;;;9.80;99.90;;;;;;5072370;28;20036;-66
2022/03/22 07:41:49;;;;;;;47.10;30.67;;;9.90;99.90;;;;;;5073426;28;20036;-66
2022/03/22 07:44:15;;;;;;;53.13;32.63;;;10.10;99.90;;;;;;5073617;28;20037;-65
2022/03/22 07:46:42;;;;;;;49.83;32.58;;;10.30;99.90;;;;;;5073169;28;20506;-65
2022/03/22 07:54:36;;;;;;;45.83;31.23;;;10.80;99.60;;;;;;5073512;28;20055;-66
2022/03/22 07:57:03;;;;;;;48.53;30.15;;;11.00;98.90;;;;;;5072892;28;20033;-66
2022/03/22 07:59:29;;;;;;;43.13;30.52;;;11.10;97.60;;;;;;5073420;28;20044;-65
2022/03/22 08:01:55;;;;;;;45.95;30.85;;;11.30;97.30;;;;;;5073208;28;20091;-66
2022/03/22 08:04:20;;;;;;;43.72;30.38;;;11.50;96.00;;;;;;5073115;28;20037;-65
2022/03/22 08:06:46;;;;;;;49.40;29.45;;;11.50;95.40;;;;;;5072705;28;20043;-66
2022/03/22 08:09:12;;;;;;;44.60;29.63;;;11.70;95.30;;;;;;5073288;28;20042;-65
2022/03/22 08:11:39;;;;;;;41.58;29.13;;;12.00;94.60;;;;;;5069239;28;20043;-66
2022/03/22 08:14:05;;;;;;;42.97;29.15;;;12.20;93.80;;;;;;5070758;28;20071;-65
2022/03/22 08:16:32;;;;;;;44.40;29.42;;;12.30;92.80;;;;;;5070846;28;20053;-65
2022/03/22 08:18:57;;;;;;;44.22;30.20;;;12.60;92.40;;;;;;5072586;28;20040;-66
2022/03/22 08:21:23;;;;;;;43.20;29.08;;;12.70;91.60;;;;;;5072310;28;20175;-65
2022/03/22 08:23:49;;;;;;;43.22;26.77;;;12.90;90.70;;;;;;5072756;28;20078;-65
2022/03/22 08:26:14;;;;;;;43.28;27.83;;;13.00;88.70;;;;;;5072474;28;20037;-64
2022/03/22 08:28:42;;;;;;;43.90;27.73;;;13.00;86.30;;;;;;5072567;28;20115;-66
2022/03/22 08:31:10;;;;;;;48.90;27.52;;;13.10;85.10;;;;;;5072543;28;20075;-66
2022/03/22 08:33:36;;;;;;;43.78;28.02;;;13.20;82.80;;;;;;5072241;28;20041;-65
2022/03/22 08:36:01;;;;;;;41.80;26.75;;;13.40;82.10;;;;;;5071718;28;20620;-65
2022/03/22 08:38:27;;;;;;;38.35;26.55;;;13.50;80.50;;;;;;5070629;28;20071;-64
2022/03/22 08:40:56;;;;;;;38.88;24.85;;;13.60;79.50;;;;;;5072164;28;20029;-63
2022/03/22 08:43:25;;;;;;;43.70;26.88;;;13.70;78.10;;;;;;5065603;28;20044;-64
2022/03/22 08:45:51;;;;;;;37.40;26.30;;;13.90;76.20;;;;;;5067800;28;20041;-64
2022/03/22 08:48:17;;;;;;;36.47;24.98;;;14.00;75.20;;;;;;5069153;28;20125;-64
2022/03/22 08:50:44;;;;;;;35.15;24.92;;;14.20;73.90;;;;;;5070261;28;20536;-64
2022/03/22 08:53:11;;;;;;;36.75;24.92;;;14.30;72.30;;;;;;5071467;28;20037;-64
2022/03/22 08:55:36;;;;;;;41.13;24.98;;;14.50;71.00;;;;;;5069920;28;20032;-64
2022/03/22 08:58:05;;;;;;;33.03;24.40;;;14.60;70.30;;;;;;5071742;28;20036;-63
2022/03/22 09:00:32;;;;;;;40.42;24.23;;;14.60;68.90;;;;;;5071837;28;20036;-64
2022/03/22 09:02:58;;;;;;;36.08;24.80;;;14.70;67.50;;;;;;5071952;28;20098;-64
2022/03/22 09:08:08;;;;;;;40.97;26.30;;;14.80;66.10;;;;;;5071732;28;20127;-64
2022/03/22 09:10:35;;;;;;;37.13;25.63;;;14.80;65.30;;;;;;5071440;28;20150;-64
2022/03/22 09:13:01;;;;;;;37.35;25.33;;;14.90;65.80;;;;;;5070179;28;20041;-64
2022/03/22 09:15:28;;;;;;;39.70;25.33;;;15.00;64.80;;;;;;5071415;28;20108;-64
2022/03/22 09:17:55;;;;;;;35.83;25.13;;;15.10;64.10;;;;;;5065117;28;20040;-64
2022/03/22 09:20:21;;;;;;;34.53;23.17;;;15.20;63.70;;;;;;5071395;28;20055;-64
2022/03/22 09:22:49;;;;;;;36.28;25.40;;;15.20;62.30;;;;;;5071487;28;20173;-65
2022/03/22 09:25:16;;;;;;;33.60;23.45;;;15.20;61.30;;;;;;5071150;28;20048;-65
2022/03/22 09:27:42;;;;;;;39.38;26.33;;;15.30;61.20;;;;;;5071372;28;20048;-63
2022/03/22 09:30:09;;;;;;;33.65;23.63;;;15.40;61.00;;;;;;5071538;28;20040;-64
2022/03/22 09:32:36;;;;;;;33.72;23.58;;;15.40;60.70;;;;;;5071158;28;20039;-64
2022/03/22 09:35:06;;;;;;;36.67;24.83;;;15.40;60.50;;;;;;5071362;28;20036;-64
2022/03/22 09:37:35;;;;;;;33.00;23.58;;;15.40;60.90;;;;;;5053286;28;20040;-65
2022/03/22 09:40:01;;;;;;;35.28;23.65;;;15.50;60.80;;;;;;5071229;28;20477;-66
2022/03/22 09:42:30;;;;;;;40.45;27.08;;;15.50;59.60;;;;;;5071206;28;20072;-65
2022/03/22 09:45:00;;;;;;;38.08;24.05;;;15.50;59.80;;;;;;5070934;28;20495;-66
2022/03/22 09:47:27;;;;;;;34.17;24.73;;;15.50;59.10;;;;;;5070994;28;20047;-65
2022/03/22 09:49:54;;;;;;;36.03;23.75;;;15.50;59.60;;;;;;5070986;28;20044;-65
2022/03/22 09:52:21;;;;;;;35.75;25.05;;;15.50;59.50;;;;;;5071251;28;20115;-65
2022/03/22 09:54:47;;;;;;;36.75;24.55;;;15.50;59.30;;;;;;5071025;28;20521;-65
2022/03/22 09:57:13;;;;;;;36.95;24.95;;;15.40;58.90;;;;;;5070965;28;20072;-66
2022/03/22 09:59:39;;;;;;;36.60;24.05;;;15.50;59.50;;;;;;5071093;28;20032;-66
2022/03/22 10:02:05;;;;;;;38.78;25.05;;;15.60;59.10;;;;;;5071073;28;20058;-64
2022/03/22 10:04:42;;;;;;;37.58;24.85;;;15.60;59.00;;;;;;5070027;28;20043;-65
2022/03/22 10:07:19;;;;;;;37.28;24.42;;;15.70;59.50;;;;;;5070321;28;20041;-65
2022/03/22 10:09:53;;;;;;;38.05;25.10;;;15.70;59.50;;;;;;5068753;28;20501;-65
2022/03/22 10:12:29;;;;;;;33.40;22.52;;;15.70;58.40;;;;;;5070869;28;20062;-65
2022/03/22 10:15:12;;;;;;;35.03;23.45;;;15.80;60.60;;;;;;5070966;28;20037;-65
2022/03/22 10:17:39;;;;;;;37.20;23.00;;;15.80;58.90;;;;;;5070840;28;20405;-65
2022/03/22 10:20:07;;;;;;;36.55;22.70;;;15.90;58.80;;;;;;5053001;28;20130;-64
2022/03/22 10:22:33;;;;;;;38.47;23.58;;;15.90;58.30;;;;;;5071028;28;20414;-65
2022/03/22 10:25:04;;;;;;;35.80;24.00;;;16.00;58.00;;;;;;5070896;28;20044;-66
2022/03/22 10:27:33;;;;;;;37.15;23.38;;;16.10;58.40;;;;;;5070470;28;20047;-66
2022/03/22 10:30:06;;;;;;;36.17;24.73;;;16.10;58.10;;;;;;5071147;28;20041;-65
2022/03/22 10:32:36;;;;;;;42.72;24.30;;;16.00;56.50;;;;;;5069805;28;20444;-66
2022/03/22 10:35:14;;;;;;;33.60;22.65;;;16.00;56.50;;;;;;5070947;28;20398;-66
2022/03/22 10:37:55;;;;;;;36.63;23.23;;;16.10;56.70;;;;;;5070713;28;20109;-65
2022/03/22 10:40:32;;;;;;;36.80;24.08;;;16.10;57.30;;;;;;5072093;28;20037;-66
2022/03/22 10:42:59;;;;;;;34.63;21.88;;;16.10;56.70;;;;;;5074566;28;20063;-66
2022/03/22 10:45:27;;;;;;;31.73;21.77;;;16.20;56.50;;;;;;5074346;28;20049;-66
2022/03/22 10:47:53;;;;;;;34.72;21.35;;;16.30;56.90;;;;;;5073302;28;20076;-66
2022/03/22 10:50:19;;;;;;;35.47;22.70;;;16.30;56.30;;;;;;5073185;28;20044;-66
2022/03/22 10:52:55;;;;;;;38.47;21.98;;;16.30;55.80;;;;;;5074354;28;20490;-66
2022/03/22 10:55:23;;;;;;;35.58;22.23;;;16.30;55.40;;;;;;5074240;28;20540;-66
2022/03/22 10:57:51;;;;;;;35.78;23.15;;;16.30;55.50;;;;;;5074474;28;20037;-66
2022/03/22 11:00:18;;;;;;;36.47;23.23;;;16.30;55.20;;;;;;5074389;28;20032;-66
2022/03/22 11:02:48;;;;;;;36.30;22.77;;;16.20;55.90;;;;;;5074363;28;20037;-66
2022/03/22 11:05:14;;;;;;;35.30;21.83;;;16.40;56.00;;;;;;5073009;28;20055;-66
2022/03/22 11:07:41;;;;;;;34.53;21.98;;;16.50;55.50;;;;;;5073998;28;20502;-66
2022/03/22 11:10:08;;;;;;;32.80;20.95;;;16.50;55.30;;;;;;5074303;28;20076;-66
2022/03/22 11:12:34;;;;;;;31.27;20.45;;;16.50;55.00;;;;;;5074018;28;20115;-66
2022/03/22 11:15:03;;;;;;;35.30;23.38;;;16.50;54.60;;;;;;5074153;28;20037;-66
2022/03/22 11:17:35;;;;;;;31.48;20.40;;;16.60;55.10;;;;;;5073521;28;20041;-66
2022/03/22 11:20:06;;;;;;;33.65;21.90;;;16.70;54.90;;;;;;5074245;28;20075;-66
2022/03/22 11:22:33;;;;;;;35.80;23.65;;;16.70;54.30;;;;;;5073752;28;20546;-66
2022/03/22 11:25:09;;;;;;;35.25;23.15;;;16.70;54.10;;;;;;5073905;28;20033;-66
2022/03/22 11:27:35;;;;;;;34.35;22.40;;;16.70;54.00;;;;;;5073689;28;20040;-66
2022/03/22 11:30:03;;;;;;;34.50;21.98;;;16.80;54.30;;;;;;5073678;28;20040;-66
2022/03/22 11:35:16;;;;;;;34.42;21.80;;;16.90;53.70;;;;;;5073715;28;20063;-66
2022/03/22 11:37:41;;;;;;;36.95;21.10;;;16.90;54.10;;;;;;5073386;28;20036;-66
2022/03/22 11:43:09;;;;;;;34.67;22.55;;;17.50;53.50;;;;;;5073708;28;20418;-67
2022/03/22 11:45:49;;;;;;;37.70;23.17;;;17.60;53.20;;;;;;5071298;28;20089;-67
2022/03/22 11:48:16;;;;;;;35.38;22.02;;;17.60;52.80;;;;;;5072941;28;20047;-67
2022/03/22 11:50:43;;;;;;;35.22;22.38;;;17.60;52.60;;;;;;5072364;28;20130;-68
2022/03/22 11:53:16;;;;;;;36.55;22.85;;;17.70;52.20;;;;;;5072080;28;20158;-67
2022/03/22 11:55:41;;;;;;;33.10;22.33;;;17.70;51.90;;;;;;5071806;28;20331;-67
2022/03/22 11:58:08;;;;;;;35.00;22.30;;;17.70;52.70;;;;;;5073418;28;20127;-67
2022/03/22 12:00:42;;;;;;;35.42;22.85;;;17.80;52.30;;;;;;5073293;28;20055;-67
2022/03/22 12:03:09;;;;;;;35.92;23.02;;;17.90;52.60;;;;;;5071720;28;20465;-67
2022/03/22 12:05:35;;;;;;;35.97;22.75;;;18.00;52.90;;;;;;5072840;28;20090;-67
2022/03/22 12:08:14;;;;;;;40.13;23.50;;;18.00;52.20;;;;;;5073030;28;20040;-68
2022/03/22 12:10:44;;;;;;;33.65;21.88;;;18.10;51.50;;;;;;5073141;28;20036;-67
2022/03/22 12:13:10;;;;;;;38.88;22.33;;;18.00;51.40;;;;;;5072543;28;20489;-67
2022/03/22 12:15:36;;;;;;;39.40;22.75;;;18.00;52.20;;;;;;5072513;28;20040;-67
2022/03/22 12:18:01;;;;;;;35.08;23.38;;;18.00;51.50;;;;;;5104236;22;20044;-60
2022/03/22 12:20:27;;;;;;;32.42;21.05;;;18.10;51.50;;;;;;5092834;28;20039;-60
2022/03/22 12:22:58;;;;;;;36.80;23.38;;;18.20;51.10;;;;;;5093221;28;20113;-59
2022/03/22 12:25:26;;;;;;;36.15;23.17;;;18.30;51.00;;;;;;5092810;28;20067;-59
2022/03/22 12:27:52;;;;;;;39.65;22.70;;;18.30;51.20;;;;;;5093086;28;20039;-59
2022/03/22 12:30:20;;;;;;;36.60;23.50;;;18.30;50.70;;;;;;5091259;28;20071;-60
2022/03/22 12:32:49;;;;;;;40.05;23.02;;;18.30;50.60;;;;;;5093051;28;20055;-59
2022/03/22 12:35:15;;;;;;;40.30;23.13;;;18.40;50.70;;;;;;5092854;28;20040;-58
2022/03/22 12:37:40;;;;;;;38.20;23.02;;;18.40;50.60;;;;;;5092749;28;20042;-59
2022/03/22 12:40:06;;;;;;;37.90;22.35;;;18.30;49.50;;;;;;5092922;28;20040;-59
2022/03/22 12:42:32;;;;;;;36.05;21.98;;;18.30;49.60;;;;;;5092568;28;20036;-59
2022/03/22 12:44:58;;;;;;;33.47;20.90;;;18.30;49.50;;;;;;5082658;28;20119;-59
2022/03/22 12:47:24;;;;;;;35.50;23.08;;;18.30;49.20;;;;;;5088460;28;20121;-59
2022/03/22 12:49:49;;;;;;;36.28;22.38;;;18.40;49.30;;;;;;5082611;28;20117;-59
2022/03/22 12:52:15;;;;;;;35.78;22.17;;;18.30;49.10;;;;;;5086523;28;20032;-59
2022/03/22 12:54:42;;;;;;;34.80;21.30;;;18.40;49.60;;;;;;5092597;28;20032;-59
2022/03/22 12:57:14;;;;;;;34.05;21.10;;;18.50;50.00;;;;;;5091858;28;20443;-59
2022/03/22 12:59:40;;;;;;;31.40;21.17;;;18.60;49.80;;;;;;5088813;28;20054;-59
2022/03/22 13:02:07;;;;;;;34.50;20.92;;;18.60;49.60;;;;;;5080177;28;20068;-59
2022/03/22 13:04:47;;;;;;;37.85;22.02;;;18.70;49.30;;;;;;5080851;28;20455;-59
2022/03/22 13:07:24;;;;;;;33.58;21.15;;;18.70;49.30;;;;;;5079520;28;20081;-59
2022/03/22 13:12:35;;;;;;;33.38;20.48;;;18.60;48.10;;;;;;5080919;28;20467;-59
2022/03/22 13:15:04;;;;;;;32.53;21.13;;;18.50;48.20;;;;;;5073713;28;20036;-59
2022/03/22 13:17:46;;;;;;;34.67;20.83;;;18.50;48.20;;;;;;5091509;28;20036;-59